Time;durP1;ratioP1;P1;durP2;ratioP2;P2;SDS_P1;SDS_P2;PMS_P1;PMS_P2;Temp;Humidity;BMP_temperature;BMP_pressure;BME280_temperature;BME280_humidity;BME280_pressure;Samples;Min_cycle;Max_cycle;Signal;HPM_P1;HPM_P2
2024/03/18 00:02:08;;;;;;;;;;;13.20;95.10;;;;;;5003615;28;20414;-82
2024/03/18 00:04:33;;;;;;;;;;;13.10;95.20;;;;;;5003132;28;20014;-82
2024/03/18 00:07:14;;;;;;;;;;;13.10;95.40;;;;;;5101022;27;20466;-82
2024/03/18 00:09:39;;;;;;;;;;;13.10;95.80;;;;;;5096842;28;19993;-82
2024/03/18 00:12:05;;;;;;;;;;;13.00;95.80;;;;;;5093839;28;19998;-82
2024/03/18 00:14:30;;;;;;;;;;;13.00;96.00;;;;;;5096351;28;19989;-82
2024/03/18 00:16:56;;;;;;;;;;;13.00;96.10;;;;;;5099301;28;20449;-81
2024/03/18 00:19:22;;;;;;;;;;;13.00;96.10;;;;;;5103949;28;19996;-82
2024/03/18 00:21:47;;;;;;;;;;;13.10;96.00;;;;;;5094774;28;19985;-82
2024/03/18 00:24:13;;;;;;;;;;;13.20;96.00;;;;;;5096471;28;20016;-82
2024/03/18 00:26:39;;;;;;;;;;;13.10;95.90;;;;;;5097114;28;20019;-81
2024/03/18 00:29:04;;;;;;;;;;;13.20;95.90;;;;;;5096061;28;20103;-81
2024/03/18 00:31:30;;;;;;;;;;;13.20;95.80;;;;;;5106031;28;19990;-83
2024/03/18 00:33:55;;;;;;;;;;;13.20;95.70;;;;;;5100228;28;20003;-84
2024/03/18 00:36:21;;;;;;;;;;;13.30;95.70;;;;;;5094337;28;19997;-83
2024/03/18 00:38:47;;;;;;;;;;;13.30;95.90;;;;;;5105898;28;19999;-85
2024/03/18 00:43:58;;;;;;;;;;;13.10;96.80;;;;;;5102551;28;20501;-84
2024/03/18 00:46:23;;;;;;;;;;;13.10;97.10;;;;;;5096668;28;20019;-84
2024/03/18 00:48:49;;;;;;;;;;;13.10;97.40;;;;;;5103649;28;19993;-84
2024/03/18 00:51:15;;;;;;;;;;;13.20;97.50;;;;;;5108105;28;19989;-84
2024/03/18 00:53:41;;;;;;;;;;;13.30;97.70;;;;;;5099927;28;19989;-82
2024/03/18 00:56:07;;;;;;;;;;;13.40;97.70;;;;;;5094997;28;20742;-81
2024/03/18 00:58:33;;;;;;;;;;;13.40;97.80;;;;;;5098468;28;19989;-82
2024/03/18 01:00:59;;;;;;;;;;;13.50;97.80;;;;;;5099698;28;20547;-82
2024/03/18 01:03:24;;;;;;;;;;;13.50;97.80;;;;;;5098915;28;19996;-83
2024/03/18 01:05:50;;;;;;;;;;;13.60;97.80;;;;;;5101980;28;20085;-83
2024/03/18 01:08:16;;;;;;;;;;;13.60;97.50;;;;;;5115564;28;20004;-85
2024/03/18 01:10:41;;;;;;;;;;;13.70;97.20;;;;;;5098244;28;20000;-84
2024/03/18 01:13:11;;;;;;;;;;;13.70;97.10;;;;;;5108379;28;20000;-83
2024/03/18 01:15:37;;;;;;;;;;;13.70;97.10;;;;;;5115957;28;19996;-82
2024/03/18 01:18:04;;;;;;;;;;;13.70;97.00;;;;;;5097163;28;19996;-82
2024/03/18 01:20:31;;;;;;;;;;;13.70;96.90;;;;;;5096077;28;20040;-81
2024/03/18 01:22:57;;;;;;;;;;;13.70;97.00;;;;;;5088165;28;20359;-81
2024/03/18 01:25:22;;;;;;;;;;;13.60;97.50;;;;;;5098113;28;20009;-80
2024/03/18 01:27:48;;;;;;;;;;;13.60;97.70;;;;;;5084899;28;19999;-81
2024/03/18 01:30:13;;;;;;;;;;;13.50;97.80;;;;;;5096542;28;19988;-80
2024/03/18 01:32:39;;;;;;;;;;;13.50;98.10;;;;;;5093526;28;19997;-80
2024/03/18 01:35:06;;;;;;;;;;;13.60;98.00;;;;;;5097476;28;20938;-80
2024/03/18 01:37:32;;;;;;;;;;;13.60;97.90;;;;;;5090964;28;20051;-80
2024/03/18 01:39:57;;;;;;;;;;;13.60;97.90;;;;;;5095690;28;19996;-81
2024/03/18 01:42:23;;;;;;;;;;;13.60;98.30;;;;;;5092437;28;19989;-81
2024/03/18 01:44:55;;;;;;;;;;;13.50;99.30;;;;;;5088654;28;20033;-82
2024/03/18 01:47:21;;;;;;;;;;;13.40;99.90;;;;;;5091308;28;20004;-82
2024/03/18 01:49:47;;;;;;;;;;;13.40;99.90;;;;;;5082858;28;20020;-82
2024/03/18 01:52:13;;;;;;;;;;;13.30;99.90;;;;;;5097051;28;19993;-83
2024/03/18 01:54:39;;;;;;;;;;;13.30;99.90;;;;;;5085805;28;19996;-82
2024/03/18 01:57:05;;;;;;;;;;;13.30;99.90;;;;;;5088784;28;19994;-82
2024/03/18 01:59:30;;;;;;;;;;;13.20;99.90;;;;;;5100597;28;20045;-82
2024/03/18 02:01:56;;;;;;;;;;;13.20;99.90;;;;;;5094732;28;20023;-82
2024/03/18 02:04:21;;;;;;;;;;;13.10;99.90;;;;;;5099913;28;19989;-83
2024/03/18 02:06:47;;;;;;;;;;;13.20;99.90;;;;;;5094339;28;20107;-83
2024/03/18 02:09:15;;;;;;;;;;;13.10;99.90;;;;;;5095740;27;20097;-84
2024/03/18 02:11:41;;;;;;;;;;;13.10;99.90;;;;;;5088146;28;19999;-84
2024/03/18 02:14:13;;;;;;;;;;;12.90;99.90;;;;;;5094033;28;19992;-83
2024/03/18 02:16:38;;;;;;;;;;;13.00;99.90;;;;;;5084869;28;20015;-83
2024/03/18 02:19:04;;;;;;;;;;;13.00;99.90;;;;;;5102939;28;19992;-82
2024/03/18 02:21:29;;;;;;;;;;;12.90;99.90;;;;;;5080425;28;20062;-83
2024/03/18 02:23:55;;;;;;;;;;;12.90;99.90;;;;;;5086265;28;19993;-83
2024/03/18 02:26:21;;;;;;;;;;;13.00;99.90;;;;;;5088309;28;20569;-83
2024/03/18 02:28:46;;;;;;;;;;;13.00;99.90;;;;;;5089256;28;20034;-83
2024/03/18 02:31:12;;;;;;;;;;;13.00;99.90;;;;;;5087669;28;20012;-83
2024/03/18 02:33:38;;;;;;;;;;;13.00;99.90;;;;;;5090468;28;20372;-83
2024/03/18 02:36:04;;;;;;;;;;;13.00;99.90;;;;;;5084473;28;20105;-83
2024/03/18 02:38:30;;;;;;;;;;;13.00;99.90;;;;;;5080222;28;20092;-82
2024/03/18 02:40:55;;;;;;;;;;;13.00;99.90;;;;;;5088284;28;20157;-82
2024/03/18 02:43:21;;;;;;;;;;;12.90;99.90;;;;;;5108065;27;20806;-82
2024/03/18 02:45:47;;;;;;;;;;;12.80;99.90;;;;;;5105087;27;20012;-82
2024/03/18 02:48:13;;;;;;;;;;;12.80;99.90;;;;;;5098298;27;19988;-82
2024/03/18 02:50:38;;;;;;;;;;;12.90;99.90;;;;;;5102016;27;20041;-82
2024/03/18 02:53:05;;;;;;;;;;;12.90;99.90;;;;;;5110341;27;20041;-81
2024/03/18 02:55:31;;;;;;;;;;;13.00;99.90;;;;;;5103598;28;19989;-81
2024/03/18 02:57:56;;;;;;;;;;;13.00;99.90;;;;;;5105144;27;19995;-80
2024/03/18 03:00:22;;;;;;;;;;;13.10;99.90;;;;;;5098542;27;20062;-80
2024/03/18 03:02:47;;;;;;;;;;;13.10;99.90;;;;;;5100787;27;20049;-80
2024/03/18 03:05:13;;;;;;;;;;;13.10;99.90;;;;;;5109645;27;20063;-80
2024/03/18 03:07:38;;;;;;;;;;;13.10;99.90;;;;;;5096416;28;20451;-80
2024/03/18 03:10:05;;;;;;;;;;;13.20;99.90;;;;;;5100503;27;19993;-80
2024/03/18 03:12:30;;;;;;;;;;;13.10;99.90;;;;;;5104183;27;20007;-80
2024/03/18 03:14:56;;;;;;;;;;;13.00;99.90;;;;;;5100362;27;19997;-81
2024/03/18 03:17:25;;;;;;;;;;;13.00;99.90;;;;;;5096337;27;19996;-81
2024/03/18 03:19:51;;;;;;;;;;;13.00;99.90;;;;;;5074749;28;19996;-81
2024/03/18 03:22:17;;;;;;;;;;;13.00;99.90;;;;;;5105634;27;19999;-82
2024/03/18 03:24:43;;;;;;;;;;;13.00;99.90;;;;;;5099580;27;20083;-83
2024/03/18 03:27:08;;;;;;;;;;;13.10;99.90;;;;;;5108292;27;20022;-82
2024/03/18 03:29:34;;;;;;;;;;;13.10;99.90;;;;;;5096661;27;19996;-83
2024/03/18 03:31:59;;;;;;;;;;;13.10;99.90;;;;;;5103412;27;19992;-83
2024/03/18 03:34:25;;;;;;;;;;;13.00;99.90;;;;;;5106178;27;19988;-83
2024/03/18 03:36:50;;;;;;;;;;;12.90;99.90;;;;;;5103274;28;19989;-83
2024/03/18 03:39:16;;;;;;;;;;;13.00;99.90;;;;;;5096676;28;19993;-83
2024/03/18 03:41:42;;;;;;;;;;;13.00;99.90;;;;;;5096849;28;20436;-84
2024/03/18 03:44:08;;;;;;;;;;;13.00;99.90;;;;;;5107119;27;20013;-82
2024/03/18 03:46:34;;;;;;;;;;;13.10;99.90;;;;;;5091874;28;20016;-82
2024/03/18 03:48:59;;;;;;;;;;;13.10;99.90;;;;;;5097852;28;20398;-82
2024/03/18 03:51:25;;;;;;;;;;;13.00;99.90;;;;;;5092940;28;19993;-82
2024/03/18 03:53:50;;;;;;;;;;;13.00;99.90;;;;;;5097169;28;19989;-83
2024/03/18 03:56:16;;;;;;;;;;;13.10;99.90;;;;;;5102962;27;19993;-83
2024/03/18 03:58:46;;;;;;;;;;;13.10;99.90;;;;;;5095620;28;19988;-83
2024/03/18 04:01:12;;;;;;;;;;;13.10;99.90;;;;;;5102308;28;20096;-83
2024/03/18 04:03:37;;;;;;;;;;;13.10;99.90;;;;;;5102274;28;20067;-82
2024/03/18 04:06:03;;;;;;;;;;;13.10;99.90;;;;;;5083411;28;20024;-83
2024/03/18 04:08:28;;;;;;;;;;;13.00;99.90;;;;;;5102261;28;19989;-83
2024/03/18 04:10:54;;;;;;;;;;;12.90;99.90;;;;;;5099998;28;20035;-81
2024/03/18 04:13:19;;;;;;;;;;;12.90;99.90;;;;;;5100561;28;20506;-81
2024/03/18 04:15:45;;;;;;;;;;;12.90;99.90;;;;;;5101699;28;20000;-80
2024/03/18 04:18:11;;;;;;;;;;;13.00;99.90;;;;;;5084566;28;20136;-81
2024/03/18 04:20:37;;;;;;;;;;;12.90;99.90;;;;;;5101498;28;20083;-82
2024/03/18 04:23:05;;;;;;;;;;;13.00;99.90;;;;;;5097168;28;19999;-81
2024/03/18 04:25:33;;;;;;;;;;;13.00;99.90;;;;;;5099666;28;20075;-81
2024/03/18 04:28:02;;;;;;;;;;;13.00;99.90;;;;;;5101797;28;19988;-81
2024/03/18 04:30:28;;;;;;;;;;;13.00;99.90;;;;;;5102279;28;19989;-81
2024/03/18 04:32:53;;;;;;;;;;;12.90;99.90;;;;;;5102053;28;20077;-81
2024/03/18 04:35:19;;;;;;;;;;;12.90;99.90;;;;;;5111292;28;20666;-81
2024/03/18 04:37:57;;;;;;;;;;;12.90;99.90;;;;;;5102684;28;20113;-81
2024/03/18 04:40:23;;;;;;;;;;;12.90;99.90;;;;;;5097857;28;19988;-81
2024/03/18 04:42:49;;;;;;;;;;;12.80;99.90;;;;;;5103895;28;19988;-80
2024/03/18 04:45:16;;;;;;;;;;;12.90;99.90;;;;;;5102034;28;19996;-80
2024/03/18 04:47:46;;;;;;;;;;;12.90;99.90;;;;;;5098755;28;20020;-80
2024/03/18 04:50:13;;;;;;;;;;;12.90;99.90;;;;;;5113930;28;20083;-80
2024/03/18 04:52:39;;;;;;;;;;;12.90;99.90;;;;;;5096973;28;20010;-82
2024/03/18 04:55:05;;;;;;;;;;;12.80;99.90;;;;;;5105865;28;19988;-82
2024/03/18 04:57:31;;;;;;;;;;;12.70;99.90;;;;;;5104703;28;19985;-82
2024/03/18 04:59:56;;;;;;;;;;;12.70;99.90;;;;;;5106247;28;20323;-82
2024/03/18 05:02:22;;;;;;;;;;;12.60;99.90;;;;;;5105792;28;19992;-82
2024/03/18 05:04:48;;;;;;;;;;;12.60;99.90;;;;;;5106981;27;20035;-81
2024/03/18 05:07:14;;;;;;;;;;;12.70;99.90;;;;;;5106624;27;20012;-81
2024/03/18 05:09:40;;;;;;;;;;;12.60;99.90;;;;;;5101964;27;20000;-84
2024/03/18 05:12:05;;;;;;;;;;;12.60;99.90;;;;;;5111691;27;19996;-82
2024/03/18 05:14:31;;;;;;;;;;;12.60;99.90;;;;;;5105071;28;20088;-81
2024/03/18 05:16:56;;;;;;;;;;;12.60;99.90;;;;;;5104819;28;20863;-81
2024/03/18 05:19:23;;;;;;;;;;;12.50;99.90;;;;;;5106353;27;19995;-81
2024/03/18 05:21:49;;;;;;;;;;;12.50;99.90;;;;;;5109744;27;19996;-81
2024/03/18 05:24:15;;;;;;;;;;;12.50;99.90;;;;;;5103772;27;20559;-82
2024/03/18 05:26:40;;;;;;;;;;;12.50;99.90;;;;;;5104991;28;20534;-83
2024/03/18 05:29:06;;;;;;;;;;;12.60;99.90;;;;;;5106086;27;20011;-83
2024/03/18 05:31:31;;;;;;;;;;;12.50;99.90;;;;;;5107869;27;20142;-83
2024/03/18 05:34:01;;;;;;;;;;;12.60;99.90;;;;;;5104687;27;20096;-84
2024/03/18 05:36:27;;;;;;;;;;;12.50;99.90;;;;;;5107921;27;19996;-83
2024/03/18 05:38:52;;;;;;;;;;;12.50;99.90;;;;;;5104879;27;20000;-84
2024/03/18 05:41:18;;;;;;;;;;;12.60;99.90;;;;;;5102349;27;19989;-82
2024/03/18 05:43:44;;;;;;;;;;;12.60;99.90;;;;;;5100918;27;20836;-80
2024/03/18 05:46:10;;;;;;;;;;;12.70;99.90;;;;;;5091018;28;20128;-81
2024/03/18 05:48:35;;;;;;;;;;;12.70;99.90;;;;;;5109129;27;20007;-82
2024/03/18 05:51:01;;;;;;;;;;;12.70;99.90;;;;;;5086109;28;20448;-83
2024/03/18 05:53:26;;;;;;;;;;;12.70;99.90;;;;;;5103629;28;20509;-84
2024/03/18 05:55:52;;;;;;;;;;;12.70;99.90;;;;;;5103533;28;19989;-83
2024/03/18 05:58:17;;;;;;;;;;;12.80;99.90;;;;;;5101476;28;20133;-84
2024/03/18 06:00:43;;;;;;;;;;;12.80;99.90;;;;;;5104259;27;19992;-83
2024/03/18 06:03:08;;;;;;;;;;;12.70;99.90;;;;;;5105834;27;19993;-84
2024/03/18 06:05:34;;;;;;;;;;;12.80;99.90;;;;;;5102843;28;20660;-83
2024/03/18 06:07:59;;;;;;;;;;;12.80;99.90;;;;;;5100982;27;20085;-83
2024/03/18 06:10:25;;;;;;;;;;;12.70;99.90;;;;;;5101392;28;19988;-83
2024/03/18 06:12:51;;;;;;;;;;;12.70;99.90;;;;;;5102375;28;20075;-83
2024/03/18 06:15:16;;;;;;;;;;;12.80;99.90;;;;;;5098317;28;20070;-82
2024/03/18 06:17:42;;;;;;;;;;;12.80;99.90;;;;;;5103977;28;20010;-83
2024/03/18 06:20:10;;;;;;;;;;;12.80;99.90;;;;;;5091695;28;19988;-82
2024/03/18 06:22:38;;;;;;;;;;;12.80;99.90;;;;;;5112940;27;19993;-85
2024/03/18 06:27:52;;;;;;;;;;;12.70;99.90;;;;;;5101584;27;20027;-83
2024/03/18 06:30:18;;;;;;;;;;;12.70;99.90;;;;;;5106651;27;20673;-85
2024/03/18 06:32:44;;;;;;;;;;;12.80;99.90;;;;;;5104698;28;19988;-83
2024/03/18 06:35:09;;;;;;;;;;;12.90;99.90;;;;;;5109774;27;20019;-85
2024/03/18 06:37:36;;;;;;;;;;;12.90;99.90;;;;;;5093823;28;19988;-84
2024/03/18 06:40:06;;;;;;;;;;;13.00;99.90;;;;;;5103760;28;19995;-84
2024/03/18 06:42:32;;;;;;;;;;;13.10;99.90;;;;;;5097479;27;19996;-83
2024/03/18 06:44:57;;;;;;;;;;;12.90;99.90;;;;;;5104871;27;19989;-85
2024/03/18 06:47:25;;;;;;;;;;;13.10;99.90;;;;;;5103736;28;20064;-83
2024/03/18 06:49:54;;;;;;;;;;;13.30;99.90;;;;;;5106169;27;20004;-83
2024/03/18 06:52:19;;;;;;;;;;;13.40;99.90;;;;;;5103485;28;20701;-83
2024/03/18 06:54:45;;;;;;;;;;;13.50;99.90;;;;;;5105542;27;20041;-83
2024/03/18 06:57:10;;;;;;;;;;;13.40;99.90;;;;;;5104579;27;20069;-83
2024/03/18 06:59:36;;;;;;;;;;;13.40;99.90;;;;;;5103764;27;19996;-83
2024/03/18 07:02:02;;;;;;;;;;;13.20;99.90;;;;;;5102720;27;20061;-83
2024/03/18 07:04:28;;;;;;;;;;;13.20;99.90;;;;;;5088023;28;19992;-83
2024/03/18 07:06:54;;;;;;;;;;;13.20;99.90;;;;;;5104367;27;20027;-83
2024/03/18 07:09:19;;;;;;;;;;;13.20;99.90;;;;;;5104945;27;19992;-83
2024/03/18 07:11:45;;;;;;;;;;;13.30;99.90;;;;;;5103164;28;20371;-83
2024/03/18 07:14:11;;;;;;;;;;;13.30;99.90;;;;;;5088366;28;19992;-82
2024/03/18 07:16:36;;;;;;;;;;;13.10;99.90;;;;;;5106963;27;20746;-83
2024/03/18 07:19:03;;;;;;;;;;;13.10;99.90;;;;;;5102857;28;19993;-83
2024/03/18 07:21:28;;;;;;;;;;;13.00;99.90;;;;;;5103076;27;19995;-83
2024/03/18 07:23:54;;;;;;;;;;;13.20;99.90;;;;;;5107009;27;19989;-83
2024/03/18 07:26:20;;;;;;;;;;;13.70;99.90;;;;;;5102951;28;20009;-83
2024/03/18 07:28:45;;;;;;;;;;;14.00;99.90;;;;;;5102982;28;20038;-83
2024/03/18 07:31:13;;;;;;;;;;;14.50;99.90;;;;;;5099499;28;19988;-84
2024/03/18 07:33:42;;;;;;;;;;;16.20;99.90;;;;;;5084153;28;19993;-84
2024/03/18 07:36:08;;;;;;;;;;;15.60;99.90;;;;;;5084938;28;20083;-84
2024/03/18 07:38:33;;;;;;;;;;;14.80;99.90;;;;;;5102958;28;20127;-84
2024/03/18 07:40:59;;;;;;;;;;;14.40;99.90;;;;;;5103142;28;20022;-84
2024/03/18 07:43:25;;;;;;;;;;;14.20;99.90;;;;;;5108015;27;19991;-85
2024/03/18 07:45:51;;;;;;;;;;;14.20;99.90;;;;;;5101708;28;20008;-84
2024/03/18 07:48:16;;;;;;;;;;;14.40;99.90;;;;;;5103025;28;19995;-84
2024/03/18 07:50:42;;;;;;;;;;;14.60;99.90;;;;;;5084557;28;19999;-84
2024/03/18 07:53:07;;;;;;;;;;;15.50;99.90;;;;;;5102281;28;19989;-84
2024/03/18 07:55:33;;;;;;;;;;;15.10;99.90;;;;;;5102987;28;19991;-84
2024/03/18 07:57:58;;;;;;;;;;;14.70;99.90;;;;;;5093388;28;20108;-84
2024/03/18 08:00:24;;;;;;;;;;;15.20;99.90;;;;;;5102913;28;20024;-84
2024/03/18 08:02:49;;;;;;;;;;;15.20;99.90;;;;;;5102577;28;20447;-84
2024/03/18 08:05:15;;;;;;;;;;;14.70;99.90;;;;;;5102305;28;20024;-84
2024/03/18 08:07:41;;;;;;;;;;;14.20;99.90;;;;;;5102234;28;20001;-84
2024/03/18 08:10:07;;;;;;;;;;;14.40;99.90;;;;;;5102536;28;20038;-84
2024/03/18 08:12:32;;;;;;;;;;;15.00;99.90;;;;;;5074318;28;20759;-84
2024/03/18 08:14:58;;;;;;;;;;;15.10;99.90;;;;;;5095133;28;20413;-84
2024/03/18 08:17:23;;;;;;;;;;;16.80;99.90;;;;;;5095048;28;20404;-84
2024/03/18 08:19:49;;;;;;;;;;;18.10;99.90;;;;;;5102925;28;19989;-85
2024/03/18 08:22:16;;;;;;;;;;;17.20;99.90;;;;;;5096254;28;19995;-84
2024/03/18 08:24:46;;;;;;;;;;;17.90;99.90;;;;;;5096198;28;19993;-85
2024/03/18 08:27:12;;;;;;;;;;;19.70;97.80;;;;;;5096940;28;20011;-85
2024/03/18 08:29:38;;;;;;;;;;;18.40;98.90;;;;;;5101689;28;19997;-85
2024/03/18 08:32:04;;;;;;;;;;;17.70;99.40;;;;;;5100246;28;20042;-84
2024/03/18 08:34:29;;;;;;;;;;;17.20;99.90;;;;;;5111586;27;20056;-85
2024/03/18 08:36:55;;;;;;;;;;;16.60;99.90;;;;;;5107407;27;20065;-85
2024/03/18 08:39:21;;;;;;;;;;;20.20;99.10;;;;;;5106491;27;20452;-85
2024/03/18 08:41:47;;;;;;;;;;;22.00;91.70;;;;;;5106217;28;19993;-85
2024/03/18 08:44:12;;;;;;;;;;;19.00;94.90;;;;;;5107598;27;20028;-85
2024/03/18 08:46:40;;;;;;;;;;;17.70;97.70;;;;;;5105504;28;20479;-85
2024/03/18 08:49:07;;;;;;;;;;;17.40;98.50;;;;;;5101506;28;20479;-84
2024/03/18 08:51:33;;;;;;;;;;;16.80;99.50;;;;;;5105707;28;19989;-84
2024/03/18 08:53:59;;;;;;;;;;;15.90;99.90;;;;;;5114406;27;19995;-83
2024/03/18 08:56:24;;;;;;;;;;;15.50;99.90;;;;;;5105726;28;19992;-84
2024/03/18 08:58:50;;;;;;;;;;;15.40;99.90;;;;;;5102704;28;19996;-85
2024/03/18 09:01:16;;;;;;;;;;;15.60;99.90;;;;;;5104070;28;20238;-85
2024/03/18 09:03:41;;;;;;;;;;;15.80;99.90;;;;;;5097995;28;19989;-84
2024/03/18 09:06:08;;;;;;;;;;;15.80;99.90;;;;;;5105180;28;20039;-84
2024/03/18 09:08:34;;;;;;;;;;;15.40;99.90;;;;;;5105410;28;20003;-84
2024/03/18 09:10:59;;;;;;;;;;;15.50;99.90;;;;;;5104053;28;19989;-84
2024/03/18 09:13:25;;;;;;;;;;;15.40;99.90;;;;;;5104282;28;20049;-84
2024/03/18 09:15:50;;;;;;;;;;;15.40;99.90;;;;;;5104899;28;20660;-85
2024/03/18 09:18:17;;;;;;;;;;;15.50;99.90;;;;;;5105295;28;19992;-84
2024/03/18 09:20:42;;;;;;;;;;;15.40;99.90;;;;;;5106498;27;20487;-84
2024/03/18 09:23:08;;;;;;;;;;;15.50;99.90;;;;;;5105969;27;20084;-85
2024/03/18 09:25:35;;;;;;;;;;;15.50;99.90;;;;;;5105367;28;20016;-84
2024/03/18 09:28:00;;;;;;;;;;;15.60;99.90;;;;;;5104946;28;20020;-84
2024/03/18 09:30:27;;;;;;;;;;;16.10;99.90;;;;;;5105062;28;19997;-84
2024/03/18 09:32:53;;;;;;;;;;;16.30;99.90;;;;;;5104673;28;20588;-84
2024/03/18 09:35:19;;;;;;;;;;;17.10;99.90;;;;;;5104912;28;20072;-84
2024/03/18 09:37:45;;;;;;;;;;;19.10;98.20;;;;;;5084848;28;20607;-85
2024/03/18 09:40:11;;;;;;;;;;;19.00;95.60;;;;;;5105574;28;19989;-84
2024/03/18 09:42:36;;;;;;;;;;;18.00;95.40;;;;;;5086532;28;19996;-84
2024/03/18 09:45:02;;;;;;;;;;;17.50;97.10;;;;;;5106907;27;20075;-84
2024/03/18 09:47:31;;;;;;;;;;;16.80;97.70;;;;;;5104509;28;20493;-84
2024/03/18 09:49:57;;;;;;;;;;;16.50;98.80;;;;;;5105037;28;19993;-84
2024/03/18 09:52:24;;;;;;;;;;;16.30;98.30;;;;;;5104841;28;20408;-84
2024/03/18 09:54:50;;;;;;;;;;;16.20;99.00;;;;;;5104472;28;20522;-84
2024/03/18 09:57:18;;;;;;;;;;;16.10;99.40;;;;;;5101501;28;20000;-85
2024/03/18 09:59:43;;;;;;;;;;;15.70;98.80;;;;;;5105066;28;19995;-84
2024/03/18 10:02:16;;;;;;;;;;;15.30;99.90;;;;;;5095118;28;19989;-84
2024/03/18 10:04:45;;;;;;;;;;;15.40;99.90;;;;;;5102176;28;20056;-84
2024/03/18 10:07:12;;;;;;;;;;;17.70;96.80;;;;;;5082250;28;20025;-85
2024/03/18 10:09:38;;;;;;;;;;;19.00;93.30;;;;;;5083223;28;19993;-84
2024/03/18 10:12:04;;;;;;;;;;;19.60;91.80;;;;;;5084157;28;19989;-84
2024/03/18 10:14:29;;;;;;;;;;;19.60;89.70;;;;;;5083186;28;20007;-84
2024/03/18 10:16:58;;;;;;;;;;;18.70;89.60;;;;;;5083617;28;20493;-85
2024/03/18 10:19:24;;;;;;;;;;;18.50;91.90;;;;;;5084042;28;19989;-84
2024/03/18 10:21:50;;;;;;;;;;;19.20;91.20;;;;;;5083888;28;20733;-84
2024/03/18 10:24:16;;;;;;;;;;;20.00;89.30;;;;;;5077257;28;20100;-85
2024/03/18 10:26:44;;;;;;;;;;;19.50;89.50;;;;;;5083768;28;20020;-85
2024/03/18 10:29:09;;;;;;;;;;;19.00;89.90;;;;;;5084440;28;19995;-84
2024/03/18 10:31:38;;;;;;;;;;;18.30;90.70;;;;;;5084296;28;19989;-85
2024/03/18 10:34:04;;;;;;;;;;;17.60;92.20;;;;;;5085252;28;19999;-84
2024/03/18 10:36:33;;;;;;;;;;;17.20;94.00;;;;;;5083650;28;20836;-84
2024/03/18 10:39:07;;;;;;;;;;;16.90;94.10;;;;;;5083907;28;19988;-84
2024/03/18 10:41:37;;;;;;;;;;;17.70;93.30;;;;;;5083881;28;20072;-84
2024/03/18 10:44:23;;;;;;;;;;;18.20;91.30;;;;;;5081623;28;19989;-84
2024/03/18 10:46:48;;;;;;;;;;;18.60;91.60;;;;;;5082941;28;20008;-84
2024/03/18 10:49:19;;;;;;;;;;;18.30;90.80;;;;;;5084029;28;19989;-84
2024/03/18 10:51:45;;;;;;;;;;;18.00;92.30;;;;;;5082955;28;19988;-84
2024/03/18 10:54:12;;;;;;;;;;;17.30;91.70;;;;;;5083209;28;20046;-85
2024/03/18 10:56:38;;;;;;;;;;;17.00;92.40;;;;;;5082858;28;20039;-84
2024/03/18 10:59:04;;;;;;;;;;;16.80;90.60;;;;;;5074252;28;19989;-85
2024/03/18 11:01:30;;;;;;;;;;;16.70;90.50;;;;;;5072249;28;20039;-86
2024/03/18 11:03:55;;;;;;;;;;;16.80;90.10;;;;;;5076770;28;19989;-85
2024/03/18 11:06:21;;;;;;;;;;;17.10;89.40;;;;;;5096149;28;20494;-86
2024/03/18 11:08:49;;;;;;;;;;;17.40;90.60;;;;;;5103217;28;19993;-85
2024/03/18 11:11:15;;;;;;;;;;;17.60;88.60;;;;;;5102711;27;20086;-85
2024/03/18 11:13:41;;;;;;;;;;;17.60;87.20;;;;;;5103086;28;20003;-85
2024/03/18 11:16:09;;;;;;;;;;;17.50;87.60;;;;;;5101418;28;20035;-85
2024/03/18 11:18:38;;;;;;;;;;;17.60;89.60;;;;;;5090657;28;20004;-87
2024/03/18 11:21:05;;;;;;;;;;;17.60;87.60;;;;;;5102969;27;20107;-86
2024/03/18 11:23:31;;;;;;;;;;;17.80;91.80;;;;;;5103799;27;19996;-85
2024/03/18 11:25:57;;;;;;;;;;;17.60;86.20;;;;;;5097572;27;20365;-84
2024/03/18 11:28:52;;;;;;;;;;;17.70;89.80;;;;;;5097465;28;19996;-85
2024/03/18 11:31:18;;;;;;;;;;;17.90;89.10;;;;;;5085906;28;20435;-84
2024/03/18 11:33:44;;;;;;;;;;;17.70;86.90;;;;;;5103766;28;20092;-84
2024/03/18 11:36:16;;;;;;;;;;;17.70;87.40;;;;;;5099620;28;19989;-85
2024/03/18 11:38:42;;;;;;;;;;;18.20;85.90;;;;;;5103495;28;19989;-81
2024/03/18 11:41:07;;;;;;;;;;;18.60;89.20;;;;;;5078269;28;19993;-86
2024/03/18 11:43:33;;;;;;;;;;;18.70;88.80;;;;;;5086446;28;20050;-85
2024/03/18 11:46:00;;;;;;;;;;;18.50;87.70;;;;;;5102610;28;20009;-86
2024/03/18 11:48:26;;;;;;;;;;;18.40;88.00;;;;;;5102519;28;20034;-86
2024/03/18 11:50:52;;;;;;;;;;;18.30;86.10;;;;;;5103310;28;20028;-86
2024/03/18 11:53:21;;;;;;;;;;;18.00;90.30;;;;;;5094151;28;20137;-84
2024/03/18 11:55:52;;;;;;;;;;;17.90;90.10;;;;;;5103111;28;20633;-86
2024/03/18 11:58:18;;;;;;;;;;;17.90;87.90;;;;;;5097323;28;19988;-85
2024/03/18 12:00:47;;;;;;;;;;;17.90;86.70;;;;;;5102657;28;20779;-83
2024/03/18 12:03:13;;;;;;;;;;;17.90;88.00;;;;;;5101616;28;20400;-84
2024/03/18 12:05:40;;;;;;;;;;;18.00;90.80;;;;;;5102818;28;20127;-85
2024/03/18 12:08:07;;;;;;;;;;;18.10;89.80;;;;;;5084109;28;19993;-85
2024/03/18 12:10:33;;;;;;;;;;;18.00;86.50;;;;;;5101468;28;19985;-85
2024/03/18 12:12:59;;;;;;;;;;;18.00;87.90;;;;;;5102888;28;19989;-85
2024/03/18 12:15:24;;;;;;;;;;;17.80;88.70;;;;;;5103147;28;19989;-85
2024/03/18 12:17:51;;;;;;;;;;;17.60;88.40;;;;;;5102355;28;20076;-85
2024/03/18 12:20:22;;;;;;;;;;;17.60;84.90;;;;;;5102905;28;20039;-85
2024/03/18 12:22:58;;;;;;;;;;;17.60;90.00;;;;;;5103300;28;19991;-85
2024/03/18 12:31:04;;;;;;;;;;;17.60;89.90;;;;;;5066380;28;19997;-85
2024/03/18 12:33:30;;;;;;;;;;;17.60;89.70;;;;;;5096598;28;20430;-86
2024/03/18 12:35:56;;;;;;;;;;;17.60;91.00;;;;;;5102666;28;20190;-85
2024/03/18 12:38:22;;;;;;;;;;;17.50;89.10;;;;;;5101848;28;20034;-85
2024/03/18 12:40:48;;;;;;;;;;;17.50;89.40;;;;;;5084049;28;19992;-85
2024/03/18 12:43:14;;;;;;;;;;;17.30;83.80;;;;;;5080536;28;20409;-85
2024/03/18 12:45:39;;;;;;;;;;;17.20;84.10;;;;;;5102018;28;20012;-85
2024/03/18 12:48:07;;;;;;;;;;;17.20;82.90;;;;;;5102169;28;20087;-85
2024/03/18 12:50:33;;;;;;;;;;;17.40;84.70;;;;;;5102519;28;20443;-85
2024/03/18 12:53:01;;;;;;;;;;;17.70;84.40;;;;;;5103146;28;20025;-86
2024/03/18 12:55:28;;;;;;;;;;;17.90;82.50;;;;;;5112142;28;19992;-85
2024/03/18 12:57:54;;;;;;;;;;;17.70;78.80;;;;;;5095175;28;19992;-85
2024/03/18 13:00:20;;;;;;;;;;;17.50;75.30;;;;;;5102122;28;20755;-85
2024/03/18 13:02:46;;;;;;;;;;;17.40;79.30;;;;;;5106001;28;19989;-84
2024/03/18 13:05:12;;;;;;;;;;;17.50;81.30;;;;;;5100997;28;20024;-85
2024/03/18 13:07:39;;;;;;;;;;;17.40;78.20;;;;;;5101008;28;20017;-85
2024/03/18 13:10:06;;;;;;;;;;;17.30;81.50;;;;;;5091453;28;20065;-85
2024/03/18 13:12:33;;;;;;;;;;;17.30;83.30;;;;;;5101606;28;19995;-85
2024/03/18 13:14:59;;;;;;;;;;;17.30;82.70;;;;;;5105051;28;19989;-84
2024/03/18 13:17:26;;;;;;;;;;;17.20;83.90;;;;;;5105248;28;20502;-85
2024/03/18 13:19:52;;;;;;;;;;;17.30;85.10;;;;;;5106298;27;20080;-85
2024/03/18 13:22:17;;;;;;;;;;;17.30;84.90;;;;;;5086536;28;19998;-85
2024/03/18 13:24:43;;;;;;;;;;;17.20;83.50;;;;;;5105014;28;20395;-84
2024/03/18 13:27:09;;;;;;;;;;;17.10;83.80;;;;;;5105093;28;20008;-85
2024/03/18 13:29:34;;;;;;;;;;;17.10;83.30;;;;;;5104773;28;20042;-85
2024/03/18 13:32:00;;;;;;;;;;;17.00;81.80;;;;;;5105263;28;19996;-85
2024/03/18 13:34:26;;;;;;;;;;;17.00;79.10;;;;;;5104912;28;20022;-85
2024/03/18 13:36:51;;;;;;;;;;;16.80;73.30;;;;;;5104973;28;20083;-86
2024/03/18 13:39:26;;;;;;;;;;;16.90;80.30;;;;;;5104754;28;19992;-85
2024/03/18 13:41:52;;;;;;;;;;;16.80;78.40;;;;;;5104706;28;20019;-85
2024/03/18 13:44:17;;;;;;;;;;;16.90;82.80;;;;;;5108475;27;20491;-85
2024/03/18 13:46:43;;;;;;;;;;;16.80;83.60;;;;;;5104385;28;20127;-85
2024/03/18 13:49:12;;;;;;;;;;;17.00;82.00;;;;;;5104700;28;20121;-86
2024/03/18 13:51:39;;;;;;;;;;;16.80;80.70;;;;;;5103883;28;20035;-85
2024/03/18 13:54:04;;;;;;;;;;;16.70;80.50;;;;;;5103632;28;19996;-86
2024/03/18 13:56:30;;;;;;;;;;;16.80;82.30;;;;;;5103413;28;20027;-86
2024/03/18 13:58:56;;;;;;;;;;;16.80;81.30;;;;;;5097963;28;20563;-85
2024/03/18 14:01:21;;;;;;;;;;;16.80;81.40;;;;;;5085296;28;20065;-87
2024/03/18 14:03:47;;;;;;;;;;;16.80;81.40;;;;;;5111449;27;19988;-86
2024/03/18 14:06:13;;;;;;;;;;;16.70;77.50;;;;;;5104133;28;20029;-85
2024/03/18 14:08:39;;;;;;;;;;;16.80;79.80;;;;;;5104159;28;20003;-86
2024/03/18 14:11:05;;;;;;;;;;;16.80;78.00;;;;;;5102956;28;20561;-85
2024/03/18 14:13:31;;;;;;;;;;;16.70;73.70;;;;;;5104363;28;20670;-85
2024/03/18 14:15:57;;;;;;;;;;;16.60;72.80;;;;;;5099972;28;20511;-85
2024/03/18 14:18:24;;;;;;;;;;;16.60;74.80;;;;;;5085124;28;19999;-85
2024/03/18 14:20:50;;;;;;;;;;;16.70;78.20;;;;;;5097934;28;19995;-86
2024/03/18 14:23:15;;;;;;;;;;;16.90;77.70;;;;;;5102357;28;20351;-85